Time;durP1;ratioP1;P1;durP2;ratioP2;P2;SDS_P1;SDS_P2;PMS_P1;PMS_P2;Temp;Humidity;BMP_temperature;BMP_pressure;BME280_temperature;BME280_humidity;BME280_pressure;Samples;Min_cycle;Max_cycle;Signal;HPM_P1;HPM_P2
2021/01/01 00:00:27;;;;;;;51.53;32.60;;;3.20;92.00;;;;;;2072646;28;20083;-81
2021/01/01 00:01:28;;;;;;;59.13;36.97;;;3.20;92.00;;;;;;2081331;28;20148;-81
2021/01/01 00:02:28;;;;;;;54.08;35.08;;;3.20;92.00;;;;;;2088973;28;20029;-82
2021/01/01 00:03:29;;;;;;;54.50;34.28;;;3.20;92.00;;;;;;2073100;28;20026;-81
2021/01/01 00:04:31;;;;;;;53.63;34.70;;;3.20;92.00;;;;;;2072622;28;20033;-82
2021/01/01 00:05:31;;;;;;;51.20;33.53;;;3.20;92.00;;;;;;2089143;28;20029;-82
2021/01/01 00:06:33;;;;;;;52.60;34.80;;;3.20;92.00;;;;;;2088865;28;20079;-82
2021/01/01 00:07:33;;;;;;;58.30;38.00;;;3.20;92.00;;;;;;2081408;28;20502;-82
2021/01/01 00:08:34;;;;;;;67.88;44.05;;;3.20;92.00;;;;;;2072109;28;20104;-81
2021/01/01 00:09:35;;;;;;;76.93;50.97;;;3.20;92.00;;;;;;2072459;28;20034;-82
2021/01/01 00:10:35;;;;;;;87.85;55.13;;;3.10;92.00;;;;;;2072648;28;20030;-81
2021/01/01 00:11:36;;;;;;;104.20;69.18;;;3.10;92.00;;;;;;2072849;28;20519;-82
2021/01/01 00:12:36;;;;;;;106.65;72.28;;;3.10;92.00;;;;;;2080781;28;20472;-81
2021/01/01 00:13:37;;;;;;;108.78;74.72;;;3.10;92.00;;;;;;2089094;28;20502;-82
2021/01/01 00:14:38;;;;;;;109.97;74.80;;;3.10;92.00;;;;;;2080851;28;20570;-82
2021/01/01 00:15:38;;;;;;;107.57;75.63;;;3.10;92.00;;;;;;2088680;28;20045;-81
2021/01/01 00:16:44;;;;;;;114.60;77.00;;;3.10;92.00;;;;;;2097108;28;20024;-82
2021/01/01 00:17:45;;;;;;;109.25;72.75;;;3.10;92.00;;;;;;2080487;28;20092;-82
2021/01/01 00:18:46;;;;;;;108.00;72.43;;;3.10;92.00;;;;;;2080871;28;20042;-82
2021/01/01 00:19:46;;;;;;;99.40;67.68;;;3.10;92.00;;;;;;2080596;28;20026;-82
2021/01/01 00:20:47;;;;;;;92.68;61.17;;;3.10;92.00;;;;;;2065193;28;20042;-82
2021/01/01 00:21:48;;;;;;;84.38;58.03;;;3.10;92.00;;;;;;2080392;28;20049;-81
2021/01/01 00:22:48;;;;;;;79.40;51.38;;;3.10;92.00;;;;;;2080520;28;20089;-82
2021/01/01 00:23:49;;;;;;;74.43;48.75;;;3.00;92.00;;;;;;2072336;28;20030;-81
2021/01/01 00:24:49;;;;;;;72.25;47.28;;;3.10;92.00;;;;;;2088738;28;20495;-82
2021/01/01 00:25:50;;;;;;;68.80;44.13;;;3.10;92.00;;;;;;2097049;28;20024;-81
2021/01/01 00:26:51;;;;;;;64.82;41.30;;;3.10;92.00;;;;;;2081274;28;20034;-79
2021/01/01 00:27:52;;;;;;;61.33;39.85;;;3.00;92.00;;;;;;2080546;28;20522;-82
2021/01/01 00:28:53;;;;;;;60.65;38.03;;;3.00;92.00;;;;;;2088872;28;20025;-81
2021/01/01 00:29:54;;;;;;;55.83;36.95;;;3.00;92.00;;;;;;2096930;28;20478;-81
2021/01/01 00:30:55;;;;;;;58.55;37.78;;;3.00;92.30;;;;;;2080417;28;20041;-81
2021/01/01 00:31:55;;;;;;;55.85;35.88;;;3.00;92.00;;;;;;2080693;28;20514;-82
2021/01/01 00:32:56;;;;;;;55.55;36.08;;;3.00;92.00;;;;;;2080610;28;20036;-81
2021/01/01 00:33:57;;;;;;;51.25;32.75;;;3.00;92.10;;;;;;2080487;28;20434;-81
2021/01/01 00:34:58;;;;;;;52.83;33.45;;;3.00;92.10;;;;;;2088843;28;20135;-81
2021/01/01 00:35:58;;;;;;;50.22;32.33;;;3.00;92.10;;;;;;2096764;28;20469;-82
2021/01/01 00:37:00;;;;;;;49.08;32.25;;;3.00;92.10;;;;;;2097212;28;20039;-81
2021/01/01 00:38:00;;;;;;;46.47;31.27;;;3.00;92.10;;;;;;2081105;28;20021;-81
2021/01/01 00:39:01;;;;;;;48.10;30.40;;;3.00;92.10;;;;;;2081072;28;20118;-82
2021/01/01 00:40:04;;;;;;;49.15;31.45;;;3.00;92.10;;;;;;2081206;28;20065;-81
2021/01/01 00:41:05;;;;;;;50.97;32.38;;;3.00;92.10;;;;;;2080912;28;20124;-81
2021/01/01 00:42:05;;;;;;;51.40;32.72;;;3.00;92.10;;;;;;2081130;28;20017;-81
2021/01/01 00:43:07;;;;;;;48.42;31.13;;;3.00;92.10;;;;;;2081258;28;20491;-82
2021/01/01 00:44:07;;;;;;;49.50;30.85;;;3.00;92.10;;;;;;2080426;28;20030;-81
2021/01/01 00:45:08;;;;;;;47.97;30.02;;;3.00;92.10;;;;;;2072214;28;20037;-82
2021/01/01 00:46:09;;;;;;;46.35;29.75;;;3.00;92.10;;;;;;2080402;28;20499;-82
2021/01/01 00:47:10;;;;;;;48.72;31.77;;;3.00;92.10;;;;;;2081102;28;20030;-81
2021/01/01 00:48:11;;;;;;;46.50;30.25;;;3.00;92.10;;;;;;2081498;28;20030;-82
2021/01/01 00:49:11;;;;;;;47.95;30.55;;;3.00;92.20;;;;;;2082088;28;20087;-82
2021/01/01 00:50:12;;;;;;;46.85;29.88;;;3.00;92.10;;;;;;2081911;28;20068;-82
2021/01/01 00:51:13;;;;;;;48.00;30.05;;;3.00;92.20;;;;;;2081948;28;20034;-82
2021/01/01 00:52:13;;;;;;;54.45;32.90;;;3.00;92.20;;;;;;2081994;28;20026;-82
2021/01/01 00:53:14;;;;;;;48.63;31.92;;;3.00;92.20;;;;;;2065833;28;20446;-81
2021/01/01 00:54:15;;;;;;;48.83;31.63;;;2.90;92.10;;;;;;2081977;28;20151;-81
2021/01/01 00:55:15;;;;;;;50.53;32.92;;;2.90;92.20;;;;;;2098785;28;20079;-82
2021/01/01 00:56:24;;;;;;;51.50;33.10;;;3.00;92.20;;;;;;2098332;28;20024;-82
2021/01/01 00:57:25;;;;;;;51.10;33.65;;;2.90;92.20;;;;;;2082347;28;20422;-81
2021/01/01 00:58:26;;;;;;;53.65;33.28;;;2.90;92.20;;;;;;2081743;28;20048;-81
2021/01/01 00:59:28;;;;;;;57.38;36.05;;;2.90;92.20;;;;;;2073589;28;20028;-82
2021/01/01 01:00:28;;;;;;;52.42;35.47;;;2.90;92.20;;;;;;2090068;28;20486;-82
2021/01/01 01:01:29;;;;;;;57.95;35.58;;;2.90;92.30;;;;;;2098107;28;20017;-81
2021/01/01 01:02:29;;;;;;;60.38;37.83;;;2.90;92.30;;;;;;2081865;28;20069;-82
2021/01/01 01:03:30;;;;;;;60.88;38.28;;;2.80;92.30;;;;;;2081881;28;20076;-81
2021/01/01 01:04:31;;;;;;;63.38;38.15;;;2.80;92.30;;;;;;2081789;28;20028;-82
2021/01/01 01:05:31;;;;;;;64.25;39.47;;;2.80;92.30;;;;;;2073592;28;20120;-81
2021/01/01 01:06:32;;;;;;;64.28;39.22;;;2.80;92.30;;;;;;2073687;28;20026;-81
2021/01/01 01:07:32;;;;;;;62.42;39.35;;;2.80;92.30;;;;;;2081702;28;20057;-82
2021/01/01 01:08:33;;;;;;;59.80;38.05;;;2.80;92.30;;;;;;2082213;28;20025;-81
2021/01/01 01:09:34;;;;;;;61.10;39.00;;;2.80;92.30;;;;;;2082279;28;20065;-82
2021/01/01 01:10:34;;;;;;;65.88;39.55;;;2.80;92.40;;;;;;2089982;28;20025;-81
2021/01/01 01:11:35;;;;;;;63.55;37.97;;;2.70;92.40;;;;;;2090015;28;20032;-81
2021/01/01 01:12:35;;;;;;;63.20;38.40;;;2.70;92.40;;;;;;2089812;28;20052;-82
2021/01/01 01:13:37;;;;;;;64.63;39.65;;;2.70;92.40;;;;;;2081662;28;20044;-81
2021/01/01 01:14:38;;;;;;;64.65;39.20;;;2.70;92.40;;;;;;2081747;28;20032;-83
2021/01/01 01:15:39;;;;;;;60.47;38.25;;;2.70;92.40;;;;;;2090047;28;20398;-81
2021/01/01 01:16:39;;;;;;;62.08;39.00;;;2.70;92.40;;;;;;2082211;28;20038;-82
2021/01/01 01:17:40;;;;;;;62.97;38.55;;;2.70;92.40;;;;;;2081591;28;20107;-82
2021/01/01 01:18:42;;;;;;;62.50;38.58;;;2.70;92.40;;;;;;2081618;28;20045;-81
2021/01/01 01:19:42;;;;;;;66.40;40.17;;;2.70;92.40;;;;;;2073253;28;20046;-81
2021/01/01 01:20:43;;;;;;;71.68;41.75;;;2.60;92.40;;;;;;2081813;28;20392;-82
2021/01/01 01:21:43;;;;;;;70.47;41.17;;;2.60;92.40;;;;;;2098010;28;20113;-82
2021/01/01 01:22:44;;;;;;;62.47;40.35;;;2.60;92.40;;;;;;2089913;28;20529;-81
2021/01/01 01:23:45;;;;;;;66.63;40.67;;;2.60;92.60;;;;;;2089990;28;20025;-81
2021/01/01 01:24:45;;;;;;;72.65;43.95;;;2.60;92.40;;;;;;2081518;28;20034;-81
2021/01/01 01:25:46;;;;;;;70.00;42.92;;;2.60;92.40;;;;;;2073413;28;20123;-82
2021/01/01 01:26:47;;;;;;;72.82;43.72;;;2.60;92.40;;;;;;2073375;28;20034;-81
2021/01/01 01:27:47;;;;;;;73.15;43.78;;;2.60;92.40;;;;;;2081446;28;20419;-81
2021/01/01 01:28:48;;;;;;;71.50;43.17;;;2.60;92.40;;;;;;2089877;28;20029;-82
2021/01/01 01:29:50;;;;;;;68.85;42.55;;;2.60;92.40;;;;;;2081374;28;20022;-82
2021/01/01 01:30:51;;;;;;;73.38;45.00;;;2.60;92.40;;;;;;2073521;28;20062;-82
2021/01/01 01:31:51;;;;;;;70.30;41.60;;;2.50;92.40;;;;;;2081827;28;20041;-81
2021/01/01 01:32:52;;;;;;;70.88;42.13;;;2.50;92.40;;;;;;2082223;28;20388;-82
2021/01/01 01:33:53;;;;;;;70.55;44.15;;;2.50;92.40;;;;;;2082101;28;20121;-81
2021/01/01 01:34:53;;;;;;;73.28;44.08;;;2.50;92.40;;;;;;2081994;28;20032;-82
2021/01/01 01:35:54;;;;;;;81.03;48.08;;;2.50;92.40;;;;;;2082228;28;20033;-82
2021/01/01 01:36:55;;;;;;;72.50;44.80;;;2.50;92.30;;;;;;2082209;28;20026;-81
2021/01/01 01:37:55;;;;;;;70.38;43.33;;;2.50;92.40;;;;;;2089686;28;20410;-82
2021/01/01 01:38:56;;;;;;;70.28;43.70;;;2.40;92.40;;;;;;2073204;28;20036;-82
2021/01/01 01:39:57;;;;;;;71.07;44.03;;;2.40;92.40;;;;;;2073271;28;20116;-81
2021/01/01 01:40:58;;;;;;;66.45;42.10;;;2.40;92.40;;;;;;2098078;28;20565;-82
2021/01/01 01:41:58;;;;;;;67.38;41.50;;;2.40;92.40;;;;;;2089784;28;20083;-82
2021/01/01 01:42:59;;;;;;;65.75;41.80;;;2.40;92.40;;;;;;2073393;28;20124;-82
2021/01/01 01:44:00;;;;;;;67.05;42.05;;;2.40;92.40;;;;;;2081517;28;20029;-82
2021/01/01 01:45:00;;;;;;;68.82;41.53;;;2.40;92.40;;;;;;2089739;28;20029;-82
2021/01/01 01:46:01;;;;;;;62.67;38.85;;;2.40;92.40;;;;;;2089751;28;20112;-81
2021/01/01 01:47:04;;;;;;;61.95;38.53;;;2.40;92.40;;;;;;2089669;28;20060;-81
2021/01/01 01:48:11;;;;;;;60.05;36.88;;;2.30;92.40;;;;;;2081198;28;20030;-82
2021/01/01 01:49:17;;;;;;;57.50;35.70;;;2.40;92.50;;;;;;2081521;28;20026;-82
2021/01/01 01:50:17;;;;;;;59.10;36.10;;;2.40;92.50;;;;;;2082219;28;20036;-82
2021/01/01 01:51:18;;;;;;;53.50;34.35;;;2.30;92.50;;;;;;2089617;28;20032;-82
2021/01/01 01:52:20;;;;;;;59.55;35.78;;;2.30;92.50;;;;;;2081454;28;20039;-82
2021/01/01 01:53:22;;;;;;;55.85;33.70;;;2.30;92.50;;;;;;2065167;28;20026;-82
2021/01/01 01:54:22;;;;;;;54.80;34.50;;;2.30;92.50;;;;;;2065473;28;20097;-81
2021/01/01 01:55:24;;;;;;;57.05;34.47;;;2.30;92.60;;;;;;2081404;28;20132;-82
2021/01/01 01:56:25;;;;;;;56.50;34.17;;;2.30;92.60;;;;;;2082055;28;20076;-82
2021/01/01 01:57:26;;;;;;;54.97;34.38;;;2.30;92.60;;;;;;2097898;28;20486;-81
2021/01/01 01:58:27;;;;;;;54.70;35.13;;;2.30;92.60;;;;;;2081170;28;20033;-81
2021/01/01 01:59:28;;;;;;;56.75;34.40;;;2.30;92.60;;;;;;2072632;28;20026;-81
2021/01/01 02:00:53;;;;;;;58.03;33.92;;;2.30;92.60;;;;;;2081290;28;20431;-81
2021/01/01 02:01:54;;;;;;;52.17;33.13;;;2.20;92.60;;;;;;2081209;28;20029;-82
2021/01/01 02:02:55;;;;;;;52.75;32.50;;;2.20;92.60;;;;;;2089601;28;20075;-82
2021/01/01 02:03:56;;;;;;;54.08;32.63;;;2.20;92.60;;;;;;2089615;28;20040;-82
2021/01/01 02:04:57;;;;;;;52.53;33.97;;;2.20;92.60;;;;;;2097703;28;20024;-82
2021/01/01 02:05:59;;;;;;;54.47;34.15;;;2.20;92.60;;;;;;2081353;28;20400;-82
2021/01/01 02:07:00;;;;;;;54.53;33.85;;;2.20;92.60;;;;;;2073208;28;20053;-82
2021/01/01 02:08:00;;;;;;;54.33;33.92;;;2.20;92.60;;;;;;2089632;28;20024;-82
2021/01/01 02:09:01;;;;;;;52.63;32.72;;;2.10;92.60;;;;;;2081255;28;20029;-81
2021/01/01 02:10:02;;;;;;;53.50;33.42;;;2.20;92.70;;;;;;2081370;28;20026;-82
2021/01/01 02:11:04;;;;;;;54.75;33.25;;;2.10;92.70;;;;;;2081908;28;20036;-82
2021/01/01 02:12:06;;;;;;;51.10;32.85;;;2.10;92.70;;;;;;2089151;28;20025;-82
2021/01/01 02:13:08;;;;;;;50.20;31.92;;;2.10;92.70;;;;;;2089185;28;20021;-82
2021/01/01 02:14:09;;;;;;;56.00;35.63;;;2.10;92.70;;;;;;2097838;28;20123;-82
2021/01/01 02:15:10;;;;;;;54.70;33.22;;;2.10;92.70;;;;;;2097220;28;20036;-82
2021/01/01 02:16:12;;;;;;;54.17;32.70;;;2.10;92.70;;;;;;2081820;28;20439;-81
2021/01/01 02:17:13;;;;;;;52.13;33.05;;;2.10;92.70;;;;;;2089346;28;20094;-82
2021/01/01 02:18:31;;;;;;;54.78;33.35;;;2.10;92.70;;;;;;2089254;28;20083;-81
2021/01/01 02:19:33;;;;;;;53.28;32.28;;;2.10;92.70;;;;;;2097424;28;20070;-82
2021/01/01 02:20:33;;;;;;;55.00;33.72;;;2.10;92.70;;;;;;2089172;28;20479;-81
2021/01/01 02:21:34;;;;;;;56.88;33.78;;;2.10;92.70;;;;;;2081201;28;20395;-82
2021/01/01 02:22:38;;;;;;;57.72;34.05;;;2.10;92.80;;;;;;2081709;28;20505;-82
2021/01/01 02:23:39;;;;;;;56.92;34.42;;;2.00;92.70;;;;;;2097586;28;20087;-82
2021/01/01 02:24:40;;;;;;;57.72;34.95;;;2.00;92.70;;;;;;2089296;28;20064;-82
2021/01/01 02:25:40;;;;;;;60.58;36.55;;;2.10;92.70;;;;;;2081106;28;20651;-82
2021/01/01 02:26:41;;;;;;;60.95;36.05;;;2.10;92.70;;;;;;2089332;28;20416;-81
2021/01/01 02:27:41;;;;;;;57.00;34.75;;;2.10;92.70;;;;;;2064857;28;20037;-82
2021/01/01 02:28:42;;;;;;;60.75;35.53;;;2.00;92.70;;;;;;2064708;28;20023;-82
2021/01/01 02:29:43;;;;;;;56.47;35.72;;;2.00;92.70;;;;;;2097612;28;20465;-81
2021/01/01 02:30:43;;;;;;;64.60;38.53;;;2.00;92.70;;;;;;2081114;28;20111;-82
2021/01/01 02:31:44;;;;;;;64.18;38.75;;;2.00;92.70;;;;;;2081082;28;20479;-81
2021/01/01 02:32:45;;;;;;;59.33;37.85;;;2.00;92.70;;;;;;2081130;28;20018;-82
2021/01/01 02:33:48;;;;;;;58.35;36.35;;;2.00;92.70;;;;;;2072969;28;20488;-82
2021/01/01 02:34:49;;;;;;;60.42;37.78;;;2.00;92.70;;;;;;2072947;28;20042;-82
2021/01/01 02:35:49;;;;;;;60.72;37.05;;;2.00;92.70;;;;;;2089790;28;20037;-82
2021/01/01 02:36:50;;;;;;;66.15;38.47;;;2.00;92.70;;;;;;2097561;28;20021;-81
2021/01/01 02:37:51;;;;;;;62.83;39.53;;;2.00;92.70;;;;;;2081158;28;20403;-82
2021/01/01 02:38:51;;;;;;;63.78;39.45;;;2.00;92.70;;;;;;2089601;28;20045;-81
2021/01/01 02:39:52;;;;;;;62.83;39.03;;;2.00;92.70;;;;;;2089367;28;20541;-82
2021/01/01 02:40:53;;;;;;;62.25;39.58;;;2.00;92.70;;;;;;2097553;28;20020;-81
2021/01/01 02:41:53;;;;;;;66.82;40.47;;;2.00;92.70;;;;;;2100004;28;20017;-81
2021/01/01 02:42:54;;;;;;;62.88;39.72;;;2.00;92.70;;;;;;2099843;28;20009;-81
2021/01/01 02:43:54;;;;;;;59.00;37.10;;;1.90;92.70;;;;;;2099972;28;20029;-81
2021/01/01 02:44:55;;;;;;;64.45;39.13;;;1.90;92.70;;;;;;2099855;28;20078;-80
2021/01/01 02:45:56;;;;;;;64.72;38.65;;;1.90;92.70;;;;;;2100074;28;20036;-81
2021/01/01 02:47:03;;;;;;;68.65;41.80;;;1.90;92.70;;;;;;2088194;28;20045;-81
2021/01/01 02:48:13;;;;;;;65.80;40.17;;;2.00;92.70;;;;;;2081972;28;20078;-82
2021/01/01 02:49:14;;;;;;;66.20;39.92;;;1.90;92.70;;;;;;2082100;28;20026;-81
2021/01/01 02:50:17;;;;;;;75.05;43.28;;;1.90;92.70;;;;;;2081263;28;20025;-81
2021/01/01 02:51:17;;;;;;;68.55;39.35;;;1.90;92.60;;;;;;2080296;28;20093;-80
2021/01/01 02:52:18;;;;;;;66.25;39.45;;;1.90;92.60;;;;;;2091893;28;20029;-80
2021/01/01 02:53:19;;;;;;;61.95;38.47;;;1.90;92.70;;;;;;2088656;28;20030;-81
2021/01/01 02:54:20;;;;;;;70.15;40.17;;;1.80;92.60;;;;;;2087085;28;20028;-80
2021/01/01 02:55:20;;;;;;;67.97;41.28;;;1.90;92.70;;;;;;2096512;28;20025;-81
2021/01/01 02:56:21;;;;;;;68.78;40.80;;;1.80;92.70;;;;;;2088013;28;20030;-82
2021/01/01 02:57:21;;;;;;;65.85;40.55;;;1.80;92.70;;;;;;2097852;28;20116;-81
2021/01/01 02:58:22;;;;;;;72.05;42.38;;;1.80;92.70;;;;;;2097617;28;20505;-81
2021/01/01 02:59:23;;;;;;;75.20;43.80;;;1.80;92.70;;;;;;2083202;28;20034;-81
2021/01/01 03:00:23;;;;;;;67.07;42.22;;;1.70;92.60;;;;;;2072908;28;20018;-81
2021/01/01 03:01:24;;;;;;;69.63;42.00;;;1.80;92.70;;;;;;2072883;28;20106;-81
2021/01/01 03:02:24;;;;;;;68.30;40.22;;;1.80;92.70;;;;;;2081098;28;20025;-81
2021/01/01 03:03:25;;;;;;;70.57;41.80;;;1.80;92.70;;;;;;2081014;28;20128;-81
2021/01/01 03:04:26;;;;;;;63.30;38.25;;;1.70;92.70;;;;;;2089195;28;20021;-81
2021/01/01 03:05:27;;;;;;;67.80;39.97;;;1.70;92.70;;;;;;2097517;28;20028;-81
2021/01/01 03:06:27;;;;;;;64.57;39.25;;;1.70;92.70;;;;;;2081614;28;20136;-81
2021/01/01 03:07:28;;;;;;;64.28;39.58;;;1.70;92.70;;;;;;2081103;28;20034;-81
2021/01/01 03:08:29;;;;;;;66.32;39.00;;;1.70;92.70;;;;;;2081507;28;20044;-81
2021/01/01 03:09:29;;;;;;;65.50;39.78;;;1.60;92.70;;;;;;2089104;28;20029;-82
2021/01/01 03:10:30;;;;;;;60.17;37.22;;;1.60;92.80;;;;;;2089273;28;20479;-81
2021/01/01 03:11:31;;;;;;;62.22;37.47;;;1.60;92.80;;;;;;2087761;28;20021;-82
2021/01/01 03:12:31;;;;;;;58.33;37.05;;;1.60;92.80;;;;;;2095602;28;20021;-82
2021/01/01 03:13:32;;;;;;;64.47;39.22;;;1.60;92.80;;;;;;2096885;28;20009;-81
2021/01/01 03:14:33;;;;;;;61.65;37.85;;;1.60;92.80;;;;;;2097787;28;20036;-82
2021/01/01 03:15:33;;;;;;;60.83;35.88;;;1.60;92.90;;;;;;2098333;28;20028;-82
2021/01/01 03:16:34;;;;;;;66.68;38.40;;;1.60;92.90;;;;;;2097662;28;20017;-81
2021/01/01 03:17:34;;;;;;;58.17;35.30;;;1.60;92.90;;;;;;2086147;28;20083;-82
2021/01/01 03:18:35;;;;;;;59.42;36.33;;;1.60;92.90;;;;;;2080826;28;20033;-81
2021/01/01 03:19:36;;;;;;;62.45;36.65;;;1.60;92.90;;;;;;2088615;28;20052;-81
2021/01/01 03:20:36;;;;;;;61.33;36.15;;;1.60;92.90;;;;;;2080986;28;20079;-81
2021/01/01 03:21:37;;;;;;;57.03;35.60;;;1.60;92.90;;;;;;2072739;28;20026;-81
2021/01/01 03:22:38;;;;;;;59.83;36.08;;;1.60;92.90;;;;;;2089006;28;20060;-81
2021/01/01 03:23:38;;;;;;;57.85;35.47;;;1.60;92.90;;;;;;2080766;28;20029;-81
2021/01/01 03:24:39;;;;;;;59.72;36.40;;;1.60;92.90;;;;;;2072409;28;20030;-81
2021/01/01 03:25:40;;;;;;;58.45;35.15;;;1.60;92.90;;;;;;2080822;28;20068;-82
2021/01/01 03:26:40;;;;;;;61.10;36.72;;;1.60;92.90;;;;;;2080698;28;20018;-81
2021/01/01 03:27:41;;;;;;;60.75;35.78;;;1.60;92.90;;;;;;2064856;28;20562;-81
2021/01/01 03:28:42;;;;;;;55.45;34.92;;;1.60;92.90;;;;;;2080697;28;20017;-82
2021/01/01 03:29:42;;;;;;;56.35;34.70;;;1.60;92.90;;;;;;2088680;28;20060;-81
2021/01/01 03:30:43;;;;;;;57.08;35.53;;;1.60;92.90;;;;;;2080597;28;20022;-81
2021/01/01 03:31:44;;;;;;;59.47;34.88;;;1.60;92.90;;;;;;2080538;28;20022;-81
2021/01/01 03:32:44;;;;;;;53.78;33.70;;;1.60;92.90;;;;;;2080518;28;20025;-82
2021/01/01 03:33:45;;;;;;;56.45;35.03;;;1.60;93.00;;;;;;2064438;28;20034;-81
2021/01/01 03:34:45;;;;;;;57.88;34.70;;;1.70;93.00;;;;;;2080601;28;20035;-81
2021/01/01 03:35:46;;;;;;;57.50;34.83;;;1.70;93.00;;;;;;2097109;28;20127;-81
2021/01/01 03:36:47;;;;;;;58.45;35.90;;;1.70;92.90;;;;;;2080620;28;20029;-81
2021/01/01 03:37:47;;;;;;;56.92;35.95;;;1.70;92.90;;;;;;2080672;28;20056;-82
2021/01/01 03:38:48;;;;;;;60.10;37.00;;;1.70;92.90;;;;;;2088572;28;20453;-81
2021/01/01 03:39:48;;;;;;;58.20;36.03;;;1.70;92.90;;;;;;2081277;28;20061;-81
2021/01/01 03:40:49;;;;;;;63.90;38.13;;;1.70;92.90;;;;;;2080554;28;20029;-82
2021/01/01 03:41:50;;;;;;;61.53;37.60;;;1.70;92.90;;;;;;2080582;28;20465;-82
2021/01/01 03:42:50;;;;;;;61.90;37.08;;;1.80;92.90;;;;;;2072302;28;20193;-82
2021/01/01 03:43:51;;;;;;;65.50;39.03;;;1.80;92.90;;;;;;2064234;28;20030;-82
2021/01/01 03:44:52;;;;;;;100.35;41.08;;;1.80;92.90;;;;;;2080492;28;20029;-82
2021/01/01 03:45:52;;;;;;;82.43;39.17;;;1.80;92.80;;;;;;2072077;28;20506;-82
2021/01/01 03:46:53;;;;;;;72.82;37.03;;;1.80;92.80;;;;;;2080614;28;20029;-81
2021/01/01 03:47:53;;;;;;;65.50;37.75;;;1.80;92.80;;;;;;2080568;28;20527;-81
2021/01/01 03:48:55;;;;;;;69.38;36.53;;;1.80;92.70;;;;;;2072362;28;20398;-82
2021/01/01 03:49:56;;;;;;;91.65;38.15;;;1.80;92.70;;;;;;2072402;28;20041;-82
2021/01/01 03:50:56;;;;;;;82.30;37.67;;;1.80;92.70;;;;;;2072364;28;20139;-82
2021/01/01 03:51:57;;;;;;;72.28;35.03;;;1.80;92.70;;;;;;2080551;28;20448;-82
2021/01/01 03:52:58;;;;;;;72.85;37.33;;;1.80;92.70;;;;;;2088755;28;20029;-82
2021/01/01 03:53:58;;;;;;;67.50;36.67;;;1.80;92.70;;;;;;2088654;28;20454;-82
2021/01/01 03:54:59;;;;;;;63.42;36.15;;;1.80;92.70;;;;;;2064962;28;20046;-81
2021/01/01 03:55:59;;;;;;;67.55;37.05;;;1.80;92.70;;;;;;2064177;28;20434;-82
2021/01/01 03:57:00;;;;;;;67.45;37.83;;;1.80;92.70;;;;;;2072305;28;20535;-82
2021/01/01 03:58:01;;;;;;;74.93;38.13;;;1.80;92.70;;;;;;2081131;28;20053;-82
2021/01/01 03:59:01;;;;;;;71.85;37.60;;;1.70;92.70;;;;;;2080203;28;20480;-82
2021/01/01 04:00:05;;;;;;;84.32;39.05;;;1.80;92.70;;;;;;2080418;28;20384;-82
2021/01/01 04:01:06;;;;;;;102.45;40.67;;;1.70;92.70;;;;;;2080494;28;20034;-82
2021/01/01 04:02:06;;;;;;;130.40;40.38;;;1.70;92.70;;;;;;2072569;28;20384;-82
2021/01/01 04:03:07;;;;;;;188.55;44.47;;;1.70;92.70;;;;;;2072365;28;20026;-82
2021/01/01 04:04:08;;;;;;;78.50;38.95;;;1.70;92.70;;;;;;2072522;28;20034;-82
2021/01/01 04:05:09;;;;;;;95.85;39.75;;;1.70;92.60;;;;;;2080335;28;20045;-81
2021/01/01 04:06:09;;;;;;;127.43;42.47;;;1.70;92.60;;;;;;2081098;28;20034;-82
2021/01/01 04:07:10;;;;;;;94.70;38.83;;;1.70;92.70;;;;;;2081062;28;20025;-82
2021/01/01 04:08:11;;;;;;;61.88;38.40;;;1.70;92.70;;;;;;2080478;28;20026;-82
2021/01/01 04:09:11;;;;;;;77.95;38.95;;;1.70;92.70;;;;;;2072250;28;20087;-82
2021/01/01 04:10:12;;;;;;;71.53;38.35;;;1.60;92.70;;;;;;2072304;28;20034;-82
2021/01/01 04:11:13;;;;;;;68.80;37.22;;;1.60;92.80;;;;;;2097008;28;20028;-82
2021/01/01 04:12:13;;;;;;;63.15;35.03;;;1.60;92.80;;;;;;2088594;28;20059;-81
2021/01/01 04:13:14;;;;;;;63.70;35.35;;;1.60;92.80;;;;;;2080395;28;20021;-82
2021/01/01 04:14:15;;;;;;;67.80;35.70;;;1.60;92.80;;;;;;2080231;28;20403;-82
2021/01/01 04:15:15;;;;;;;77.80;34.28;;;1.60;92.80;;;;;;2072209;28;20496;-82
2021/01/01 04:16:16;;;;;;;76.15;35.92;;;1.60;92.80;;;;;;2080469;28;20026;-82
2021/01/01 04:17:17;;;;;;;81.03;35.15;;;1.60;92.80;;;;;;2081002;28;20222;-82
2021/01/01 04:18:18;;;;;;;68.82;36.03;;;1.60;92.80;;;;;;2080316;28;20443;-82
2021/01/01 04:19:18;;;;;;;114.75;39.38;;;1.60;92.80;;;;;;2080199;28;20029;-82
2021/01/01 04:20:19;;;;;;;87.68;36.88;;;1.60;92.80;;;;;;2080467;28;20391;-82
2021/01/01 04:21:19;;;;;;;63.47;36.45;;;1.60;92.80;;;;;;2080436;28;20483;-82
2021/01/01 04:22:20;;;;;;;76.63;36.70;;;1.60;92.80;;;;;;2080389;28;20029;-81
2021/01/01 04:23:21;;;;;;;62.33;34.50;;;1.60;92.80;;;;;;2073582;28;20689;-82
2021/01/01 04:24:21;;;;;;;57.70;35.95;;;1.60;92.80;;;;;;2073961;28;20108;-81
2021/01/01 04:25:22;;;;;;;94.20;39.30;;;1.60;92.80;;;;;;2081896;28;20115;-81
2021/01/01 04:26:23;;;;;;;103.70;39.42;;;1.60;92.80;;;;;;2090039;28;20025;-81
2021/01/01 04:27:23;;;;;;;67.53;35.92;;;1.60;92.80;;;;;;2073770;28;20030;-81
2021/01/01 04:28:24;;;;;;;63.58;37.97;;;1.60;92.70;;;;;;2065799;28;20030;-82
2021/01/01 04:29:25;;;;;;;78.95;39.00;;;1.60;92.70;;;;;;2081963;28;20076;-81
2021/01/01 04:30:25;;;;;;;71.65;38.58;;;1.60;93.00;;;;;;2073989;28;20361;-81
2021/01/01 04:31:26;;;;;;;62.75;37.88;;;1.60;92.80;;;;;;2081897;28;20076;-81
2021/01/01 04:32:26;;;;;;;62.97;38.67;;;1.60;92.80;;;;;;2090297;28;20053;-81
2021/01/01 04:33:27;;;;;;;63.53;37.72;;;1.60;92.80;;;;;;2082603;28;20025;-82
2021/01/01 04:34:28;;;;;;;68.38;38.15;;;1.60;92.90;;;;;;2090281;28;20063;-81
2021/01/01 04:35:28;;;;;;;63.72;37.30;;;1.60;92.90;;;;;;2090071;28;20037;-82
2021/01/01 04:36:29;;;;;;;57.65;37.38;;;1.60;92.90;;;;;;2098451;28;20032;-82
2021/01/01 04:37:30;;;;;;;64.32;38.30;;;1.60;92.90;;;;;;2098314;28;20021;-81
2021/01/01 04:38:31;;;;;;;60.88;38.58;;;1.60;92.90;;;;;;2090067;28;20064;-82
2021/01/01 04:39:31;;;;;;;59.88;37.88;;;1.60;92.90;;;;;;2089856;28;20025;-81
2021/01/01 04:40:33;;;;;;;62.13;36.88;;;1.60;92.90;;;;;;2090111;28;20031;-81
2021/01/01 04:41:35;;;;;;;71.65;38.47;;;1.60;92.90;;;;;;2090103;28;20055;-82
2021/01/01 04:42:36;;;;;;;68.47;38.08;;;1.60;92.90;;;;;;2082479;28;20025;-81
2021/01/01 04:43:37;;;;;;;105.60;43.75;;;1.60;92.90;;;;;;2081908;28;20124;-81
2021/01/01 04:44:38;;;;;;;62.97;38.90;;;1.60;92.90;;;;;;2081953;28;20184;-81
2021/01/01 04:45:39;;;;;;;81.70;42.85;;;1.60;92.90;;;;;;2081854;28;20037;-81
2021/01/01 04:46:41;;;;;;;69.50;41.85;;;1.60;92.90;;;;;;2081722;28;20029;-81
2021/01/01 04:47:43;;;;;;;66.18;40.33;;;1.60;92.90;;;;;;2081984;28;20088;-82
2021/01/01 04:48:45;;;;;;;74.60;41.35;;;1.60;92.80;;;;;;2073488;28;20149;-81
2021/01/01 04:49:46;;;;;;;67.60;41.45;;;1.60;92.80;;;;;;2073750;28;20029;-81
2021/01/01 04:50:47;;;;;;;66.85;41.75;;;1.60;92.80;;;;;;2090048;28;20201;-81
2021/01/01 04:51:47;;;;;;;62.83;41.00;;;1.60;92.80;;;;;;2081719;28;20025;-81
2021/01/01 04:52:55;;;;;;;65.85;41.42;;;1.60;92.80;;;;;;2081820;28;20053;-81
2021/01/01 04:53:57;;;;;;;64.38;39.67;;;1.60;92.80;;;;;;2074531;28;20060;-82
2021/01/01 04:55:01;;;;;;;65.03;40.80;;;1.60;92.80;;;;;;2081793;28;20583;-82
2021/01/01 04:56:03;;;;;;;70.53;41.60;;;1.60;92.90;;;;;;2081606;28;20033;-81
2021/01/01 04:57:03;;;;;;;66.43;40.85;;;1.60;92.80;;;;;;2081846;28;20030;-81
2021/01/01 04:58:04;;;;;;;68.13;42.28;;;1.60;92.80;;;;;;2073499;28;20062;-82
2021/01/01 04:59:05;;;;;;;63.20;40.65;;;1.60;92.80;;;;;;2090001;28;20115;-82
2021/01/01 05:00:06;;;;;;;65.05;40.92;;;1.60;92.80;;;;;;2098395;28;20035;-81
2021/01/01 05:01:07;;;;;;;68.43;41.35;;;1.60;92.80;;;;;;2081827;28;20037;-81
2021/01/01 05:02:07;;;;;;;69.80;42.33;;;1.60;92.90;;;;;;2073584;28;20560;-81
2021/01/01 05:03:08;;;;;;;63.70;40.05;;;1.60;92.90;;;;;;2089846;28;20094;-81
2021/01/01 05:04:09;;;;;;;78.05;44.35;;;1.60;92.90;;;;;;2098386;28;20479;-81
2021/01/01 05:05:10;;;;;;;64.82;42.58;;;1.50;92.80;;;;;;2098310;28;20410;-82
2021/01/01 05:06:10;;;;;;;70.57;41.40;;;1.60;92.80;;;;;;2090013;28;20029;-82
2021/01/01 05:07:16;;;;;;;65.20;40.85;;;1.60;92.90;;;;;;2073555;28;20030;-82
2021/01/01 05:08:18;;;;;;;65.28;40.15;;;1.50;92.90;;;;;;2081849;28;20029;-81
2021/01/01 05:09:18;;;;;;;66.30;40.63;;;1.50;92.90;;;;;;2081655;28;20203;-81
2021/01/01 05:10:19;;;;;;;60.55;39.33;;;1.50;92.90;;;;;;2073609;28;20400;-82
2021/01/01 05:11:22;;;;;;;63.75;41.25;;;1.50;92.90;;;;;;2073647;28;20038;-81
2021/01/01 05:12:31;;;;;;;97.45;44.55;;;1.50;92.90;;;;;;2081827;28;20030;-82
2021/01/01 05:13:31;;;;;;;66.07;40.55;;;1.50;92.90;;;;;;2082912;28;20025;-82